Pittsburgh, PA (15208)

9:03 PM EDT on October 24, 2014 (GMT -0400)
Shadyside | Change Station
CLOSE
Current Station
Personal Weather Station
Location: Pittsburgh, PA
Elevation: 889 ft
Nearby Weather Stations

Elev 889 ft 40.45 °N, 79.94 °W | Updated 1 minute ago

Clear
Clear
52.3 °F
Feels Like 52.3 °F
N
0.0
Wind Variable Wind from SW
Gusts 0.0 mph

Today
High -- | Low -- °F
--% Chance of Precip.
Yesterday
High -- | Low -- °F
Precip. -- in
7:40 AM 6:26 PM
New Moon, 1% visible
Pressure 30.03 in
Visibility 10.0 miles
Clouds Clear
Dew Point 42 °F
Humidity 68%
Rainfall 0.00 in
Snow Depth Not available.
UV 0 out of 12
Pollen .70 out of 12
Ozone Good
PM2.5 Moderate
Flu Activity Sporadic
METAR KAGC 250053Z 23005KT 10SM CLR 12/01 A3000 RMK AO2 SLP168 T01170011

More Conditions Fewer Conditions

Pressure 30.03 in
Visibility 10.0 miles
Clouds Clear
Dew Point 42 °F
Humidity 68%
Rainfall 0.00 in
Snow Depth Not available.
UV 0 out of 12
Pollen .70 out of 12
Ozone Good
PM2.5 Moderate
Flu Activity Sporadic
METAR KAGC 250053Z 23005KT 10SM CLR 12/01 A3000 RMK AO2 SLP168 T01170011

More Conditions Fewer Conditions

10-Day Weather Forecast

Almanac

Astronomy

Oct. 24, 2014 Rise Set
Actual Time 7:40 AM EDT 6:26 PM EDT
Civil Twilight 7:12 AM EDT 6:54 PM EDT
Nautical Twilight 6:40 AM EDT 7:26 PM EDT
Astronomical Twilight 6:08 AM EDT 7:57 PM EDT
Moon 8:17 AM EDT (10/24) 7:05 PM EDT (10/24)
Length of Visible Light 11h 41m
Length of Day
10h 46m
Tomorrow will be 2m 29s shorter.
New Moon, 1% of the Moon is Illuminated
Today
New Moon
Oct 30
First Quarter
Nov 6
Full
Nov 14
Last Quarter
Nov 22
New

Today's Extremes

State Highs State Lows

Community

WunderPhotos

Upload Photos

1,764,737 photos uploaded!

WunderBlogs® & News

Nearby

Air Quality

  Air Quality AQ Index Pollutant
Yesterday Good
PM2.5
Yesterday Good
OZONE
Current Moderate
PM2.5
Current Good
OZONE
Friday Moderate
PM2.5
Saturday Moderate
PM2.5
Sunday Good
PM2.5
Monday Moderate
PM2.5
Tuesday Moderate
PM2.5

Snow Depth

Station Depth Elevation
No new snow has been reported.

Earthquake Activity

City Distance Mag. Time & Date
No recent earthquake activity has been reported nearby.
Minimum magnitude displayed is 2.5.

Coastal Water Temperatures

Place Temperature
No Stations Reporting

Nearby Weather Stations